sensor_id;sensor_type;location;lat;lon;timestamp;P1;durP1;ratioP1;P2;durP2;ratioP2
67185;SDS011;54116;53.518;49.398;2023-02-11T00:00:32;10.30;;;4.80;;
67185;SDS011;54116;53.518;49.398;2023-02-11T00:02:58;9.88;;;4.10;;
67185;SDS011;54116;53.518;49.398;2023-02-11T00:05:25;12.68;;;4.82;;
67185;SDS011;54116;53.518;49.398;2023-02-11T00:07:51;14.27;;;5.60;;
67185;SDS011;54116;53.518;49.398;2023-02-11T00:10:17;11.93;;;4.25;;
67185;SDS011;54116;53.518;49.398;2023-02-11T00:12:43;12.73;;;3.65;;
67185;SDS011;54116;53.518;49.398;2023-02-11T00:15:09;10.10;;;4.07;;
67185;SDS011;54116;53.518;49.398;2023-02-11T00:17:35;12.85;;;5.03;;
67185;SDS011;54116;53.518;49.398;2023-02-11T00:20:02;11.55;;;5.07;;
67185;SDS011;54116;53.518;49.398;2023-02-11T00:22:28;10.60;;;3.78;;
67185;SDS011;54116;53.518;49.398;2023-02-11T00:27:21;12.35;;;4.38;;
67185;SDS011;54116;53.518;49.398;2023-02-11T00:29:47;11.48;;;4.55;;
67185;SDS011;54116;53.518;49.398;2023-02-11T00:32:13;13.90;;;4.80;;
67185;SDS011;54116;53.518;49.398;2023-02-11T00:34:40;13.63;;;5.30;;
67185;SDS011;54116;53.518;49.398;2023-02-11T00:37:06;16.88;;;5.40;;
67185;SDS011;54116;53.518;49.398;2023-02-11T00:39:32;12.90;;;5.80;;
67185;SDS011;54116;53.518;49.398;2023-02-11T00:41:58;13.43;;;4.63;;
67185;SDS011;54116;53.518;49.398;2023-02-11T00:44:24;16.50;;;5.53;;
67185;SDS011;54116;53.518;49.398;2023-02-11T00:46:50;14.35;;;5.55;;
67185;SDS011;54116;53.518;49.398;2023-02-11T00:49:16;16.52;;;5.75;;
67185;SDS011;54116;53.518;49.398;2023-02-11T00:51:43;16.20;;;5.32;;
67185;SDS011;54116;53.518;49.398;2023-02-11T00:54:09;16.33;;;6.05;;
67185;SDS011;54116;53.518;49.398;2023-02-11T00:56:35;13.82;;;5.35;;
67185;SDS011;54116;53.518;49.398;2023-02-11T00:59:01;14.55;;;4.90;;
67185;SDS011;54116;53.518;49.398;2023-02-11T01:01:27;15.20;;;4.72;;
67185;SDS011;54116;53.518;49.398;2023-02-11T01:03:53;16.30;;;5.00;;
67185;SDS011;54116;53.518;49.398;2023-02-11T01:06:19;15.50;;;6.20;;
67185;SDS011;54116;53.518;49.398;2023-02-11T01:08:45;16.70;;;5.75;;
67185;SDS011;54116;53.518;49.398;2023-02-11T01:11:13;16.17;;;6.22;;
67185;SDS011;54116;53.518;49.398;2023-02-11T01:13:42;16.70;;;5.75;;
67185;SDS011;54116;53.518;49.398;2023-02-11T01:16:09;14.23;;;5.70;;
67185;SDS011;54116;53.518;49.398;2023-02-11T01:18:36;16.40;;;6.18;;
67185;SDS011;54116;53.518;49.398;2023-02-11T01:21:03;14.52;;;6.30;;
67185;SDS011;54116;53.518;49.398;2023-02-11T01:23:29;13.88;;;5.30;;
67185;SDS011;54116;53.518;49.398;2023-02-11T01:25:55;14.73;;;5.43;;
67185;SDS011;54116;53.518;49.398;2023-02-11T01:28:22;16.42;;;5.57;;
67185;SDS011;54116;53.518;49.398;2023-02-11T01:30:50;15.10;;;5.57;;
67185;SDS011;54116;53.518;49.398;2023-02-11T01:35:43;14.55;;;5.32;;
67185;SDS011;54116;53.518;49.398;2023-02-11T01:38:13;15.75;;;5.65;;
67185;SDS011;54116;53.518;49.398;2023-02-11T01:40:45;15.00;;;5.07;;
67185;SDS011;54116;53.518;49.398;2023-02-11T01:43:14;16.33;;;5.55;;
67185;SDS011;54116;53.518;49.398;2023-02-11T01:48:11;15.65;;;6.35;;
67185;SDS011;54116;53.518;49.398;2023-02-11T01:50:40;17.25;;;5.95;;
67185;SDS011;54116;53.518;49.398;2023-02-11T01:53:07;19.88;;;6.18;;
67185;SDS011;54116;53.518;49.398;2023-02-11T01:55:54;16.25;;;6.13;;
67185;SDS011;54116;53.518;49.398;2023-02-11T01:58:40;16.70;;;6.05;;
67185;SDS011;54116;53.518;49.398;2023-02-11T02:01:10;14.63;;;5.63;;
67185;SDS011;54116;53.518;49.398;2023-02-11T02:03:40;14.32;;;5.00;;
67185;SDS011;54116;53.518;49.398;2023-02-11T02:06:15;14.98;;;5.18;;
67185;SDS011;54116;53.518;49.398;2023-02-11T02:09:06;16.35;;;6.05;;
67185;SDS011;54116;53.518;49.398;2023-02-11T02:11:35;14.90;;;5.50;;
67185;SDS011;54116;53.518;49.398;2023-02-11T02:14:02;15.50;;;5.60;;
67185;SDS011;54116;53.518;49.398;2023-02-11T02:16:29;15.95;;;5.13;;
67185;SDS011;54116;53.518;49.398;2023-02-11T02:19:04;15.73;;;5.95;;
67185;SDS011;54116;53.518;49.398;2023-02-11T02:41:08;16.52;;;6.45;;
67185;SDS011;54116;53.518;49.398;2023-02-11T02:43:39;15.35;;;5.93;;
67185;SDS011;54116;53.518;49.398;2023-02-11T02:48:44;15.43;;;6.10;;
67185;SDS011;54116;53.518;49.398;2023-02-11T03:10:50;16.02;;;5.68;;
67185;SDS011;54116;53.518;49.398;2023-02-11T03:13:21;16.50;;;5.13;;
67185;SDS011;54116;53.518;49.398;2023-02-11T03:15:51;16.55;;;5.82;;
67185;SDS011;54116;53.518;49.398;2023-02-11T03:18:21;16.92;;;5.63;;
67185;SDS011;54116;53.518;49.398;2023-02-11T03:20:51;14.30;;;5.80;;
67185;SDS011;54116;53.518;49.398;2023-02-11T03:25:57;12.90;;;5.22;;
67185;SDS011;54116;53.518;49.398;2023-02-11T03:34:01;13.32;;;5.57;;
67185;SDS011;54116;53.518;49.398;2023-02-11T03:36:55;14.15;;;5.60;;
67185;SDS011;54116;53.518;49.398;2023-02-11T03:39:26;15.10;;;5.70;;
67185;SDS011;54116;53.518;49.398;2023-02-11T03:41:57;15.85;;;6.05;;
67185;SDS011;54116;53.518;49.398;2023-02-11T03:44:27;13.27;;;5.18;;
67185;SDS011;54116;53.518;49.398;2023-02-11T03:46:58;14.88;;;7.35;;
67185;SDS011;54116;53.518;49.398;2023-02-11T03:49:27;17.27;;;6.70;;
67185;SDS011;54116;53.518;49.398;2023-02-11T03:51:54;17.05;;;6.32;;
67185;SDS011;54116;53.518;49.398;2023-02-11T03:54:25;16.73;;;6.43;;
67185;SDS011;54116;53.518;49.398;2023-02-11T03:56:55;18.50;;;5.60;;
67185;SDS011;54116;53.518;49.398;2023-02-11T03:59:24;13.77;;;4.65;;
67185;SDS011;54116;53.518;49.398;2023-02-11T04:01:50;15.07;;;5.95;;
67185;SDS011;54116;53.518;49.398;2023-02-11T04:04:17;14.70;;;5.35;;
67185;SDS011;54116;53.518;49.398;2023-02-11T04:06:44;13.05;;;5.80;;
67185;SDS011;54116;53.518;49.398;2023-02-11T04:09:10;16.60;;;6.78;;
67185;SDS011;54116;53.518;49.398;2023-02-11T04:11:37;16.63;;;5.78;;
67185;SDS011;54116;53.518;49.398;2023-02-11T04:14:03;18.13;;;6.10;;
67185;SDS011;54116;53.518;49.398;2023-02-11T04:16:29;17.17;;;5.03;;
67185;SDS011;54116;53.518;49.398;2023-02-11T04:18:56;16.10;;;6.07;;
67185;SDS011;54116;53.518;49.398;2023-02-11T04:21:22;19.05;;;6.65;;
67185;SDS011;54116;53.518;49.398;2023-02-11T04:23:48;15.52;;;5.88;;
67185;SDS011;54116;53.518;49.398;2023-02-11T04:26:14;17.80;;;6.70;;
67185;SDS011;54116;53.518;49.398;2023-02-11T04:28:40;15.38;;;6.25;;
67185;SDS011;54116;53.518;49.398;2023-02-11T04:31:06;19.95;;;7.05;;
67185;SDS011;54116;53.518;49.398;2023-02-11T04:33:32;14.73;;;6.28;;
67185;SDS011;54116;53.518;49.398;2023-02-11T04:35:58;18.05;;;6.65;;
67185;SDS011;54116;53.518;49.398;2023-02-11T04:38:24;15.98;;;6.00;;
67185;SDS011;54116;53.518;49.398;2023-02-11T04:40:50;18.67;;;6.68;;
67185;SDS011;54116;53.518;49.398;2023-02-11T04:43:18;20.10;;;7.00;;
67185;SDS011;54116;53.518;49.398;2023-02-11T04:45:44;15.95;;;7.00;;
67185;SDS011;54116;53.518;49.398;2023-02-11T04:48:10;18.50;;;6.97;;
67185;SDS011;54116;53.518;49.398;2023-02-11T04:50:36;18.52;;;7.18;;
67185;SDS011;54116;53.518;49.398;2023-02-11T04:53:02;18.48;;;5.95;;
67185;SDS011;54116;53.518;49.398;2023-02-11T04:55:28;19.42;;;6.60;;
67185;SDS011;54116;53.518;49.398;2023-02-11T04:57:54;17.13;;;6.95;;
67185;SDS011;54116;53.518;49.398;2023-02-11T05:00:20;15.23;;;6.53;;
67185;SDS011;54116;53.518;49.398;2023-02-11T05:05:17;18.33;;;6.18;;
67185;SDS011;54116;53.518;49.398;2023-02-11T05:07:44;17.85;;;6.88;;
67185;SDS011;54116;53.518;49.398;2023-02-11T05:10:10;18.33;;;7.78;;
67185;SDS011;54116;53.518;49.398;2023-02-11T05:12:36;16.35;;;6.18;;
67185;SDS011;54116;53.518;49.398;2023-02-11T05:15:02;16.02;;;6.18;;
67185;SDS011;54116;53.518;49.398;2023-02-11T05:17:28;20.83;;;7.65;;
67185;SDS011;54116;53.518;49.398;2023-02-11T05:19:54;17.83;;;7.05;;
67185;SDS011;54116;53.518;49.398;2023-02-11T05:22:20;15.93;;;6.88;;
67185;SDS011;54116;53.518;49.398;2023-02-11T05:24:46;15.43;;;6.72;;
67185;SDS011;54116;53.518;49.398;2023-02-11T05:27:12;16.55;;;7.20;;
67185;SDS011;54116;53.518;49.398;2023-02-11T05:29:38;18.17;;;6.22;;
67185;SDS011;54116;53.518;49.398;2023-02-11T05:32:04;14.90;;;6.45;;
67185;SDS011;54116;53.518;49.398;2023-02-11T05:34:31;16.08;;;6.55;;
67185;SDS011;54116;53.518;49.398;2023-02-11T05:36:57;16.25;;;6.10;;
67185;SDS011;54116;53.518;49.398;2023-02-11T05:39:23;14.43;;;5.50;;
67185;SDS011;54116;53.518;49.398;2023-02-11T05:41:50;20.25;;;7.07;;
67185;SDS011;54116;53.518;49.398;2023-02-11T05:44:16;17.42;;;5.68;;
67185;SDS011;54116;53.518;49.398;2023-02-11T05:46:42;15.57;;;6.45;;
67185;SDS011;54116;53.518;49.398;2023-02-11T05:49:08;19.15;;;6.50;;
67185;SDS011;54116;53.518;49.398;2023-02-11T05:51:35;14.63;;;6.07;;
67185;SDS011;54116;53.518;49.398;2023-02-11T05:54:01;14.40;;;5.30;;
67185;SDS011;54116;53.518;49.398;2023-02-11T05:56:28;18.13;;;6.68;;
67185;SDS011;54116;53.518;49.398;2023-02-11T05:58:54;17.88;;;6.55;;
67185;SDS011;54116;53.518;49.398;2023-02-11T06:01:20;14.35;;;5.85;;
67185;SDS011;54116;53.518;49.398;2023-02-11T06:03:46;14.88;;;6.22;;
67185;SDS011;54116;53.518;49.398;2023-02-11T06:06:14;14.10;;;6.38;;
67185;SDS011;54116;53.518;49.398;2023-02-11T06:08:40;16.85;;;6.53;;
67185;SDS011;54116;53.518;49.398;2023-02-11T06:11:07;13.68;;;6.40;;
67185;SDS011;54116;53.518;49.398;2023-02-11T06:16:00;13.48;;;5.22;;
67185;SDS011;54116;53.518;49.398;2023-02-11T06:18:27;15.18;;;6.20;;
67185;SDS011;54116;53.518;49.398;2023-02-11T06:20:54;13.00;;;5.53;;
67185;SDS011;54116;53.518;49.398;2023-02-11T06:23:20;15.73;;;6.38;;
67185;SDS011;54116;53.518;49.398;2023-02-11T06:28:13;13.82;;;5.70;;
67185;SDS011;54116;53.518;49.398;2023-02-11T06:30:39;12.93;;;4.97;;
67185;SDS011;54116;53.518;49.398;2023-02-11T06:33:05;16.23;;;5.82;;
67185;SDS011;54116;53.518;49.398;2023-02-11T06:35:32;14.23;;;5.60;;
67185;SDS011;54116;53.518;49.398;2023-02-11T06:38:01;13.20;;;4.55;;
67185;SDS011;54116;53.518;49.398;2023-02-11T06:40:28;15.88;;;6.32;;
67185;SDS011;54116;53.518;49.398;2023-02-11T06:42:54;13.57;;;5.53;;
67185;SDS011;54116;53.518;49.398;2023-02-11T06:45:20;11.45;;;5.50;;
67185;SDS011;54116;53.518;49.398;2023-02-11T06:47:46;10.95;;;4.35;;
67185;SDS011;54116;53.518;49.398;2023-02-11T06:50:12;13.30;;;5.68;;
67185;SDS011;54116;53.518;49.398;2023-02-11T06:52:39;10.48;;;4.65;;
67185;SDS011;54116;53.518;49.398;2023-02-11T06:55:05;12.30;;;4.90;;
67185;SDS011;54116;53.518;49.398;2023-02-11T06:57:32;11.60;;;5.32;;
67185;SDS011;54116;53.518;49.398;2023-02-11T06:59:59;12.05;;;5.35;;
67185;SDS011;54116;53.518;49.398;2023-02-11T07:02:25;11.43;;;5.50;;
67185;SDS011;54116;53.518;49.398;2023-02-11T07:04:51;12.23;;;5.35;;
67185;SDS011;54116;53.518;49.398;2023-02-11T07:07:18;11.80;;;5.35;;
67185;SDS011;54116;53.518;49.398;2023-02-11T07:09:44;13.18;;;5.03;;
67185;SDS011;54116;53.518;49.398;2023-02-11T07:12:10;11.38;;;4.53;;
67185;SDS011;54116;53.518;49.398;2023-02-11T07:14:36;11.43;;;5.00;;
67185;SDS011;54116;53.518;49.398;2023-02-11T07:17:03;10.80;;;5.20;;
67185;SDS011;54116;53.518;49.398;2023-02-11T07:19:29;11.68;;;5.28;;
67185;SDS011;54116;53.518;49.398;2023-02-11T07:21:55;8.93;;;4.75;;
67185;SDS011;54116;53.518;49.398;2023-02-11T07:24:21;10.98;;;4.65;;
67185;SDS011;54116;53.518;49.398;2023-02-11T07:26:47;11.95;;;4.25;;
67185;SDS011;54116;53.518;49.398;2023-02-11T07:29:14;10.80;;;4.22;;
67185;SDS011;54116;53.518;49.398;2023-02-11T07:31:40;9.48;;;4.45;;
67185;SDS011;54116;53.518;49.398;2023-02-11T07:34:08;9.80;;;4.20;;
67185;SDS011;54116;53.518;49.398;2023-02-11T07:36:35;10.88;;;4.68;;
67185;SDS011;54116;53.518;49.398;2023-02-11T07:39:02;9.82;;;4.57;;
67185;SDS011;54116;53.518;49.398;2023-02-11T07:41:29;11.25;;;4.18;;
67185;SDS011;54116;53.518;49.398;2023-02-11T07:43:55;10.43;;;4.38;;
67185;SDS011;54116;53.518;49.398;2023-02-11T07:46:22;11.82;;;5.35;;
67185;SDS011;54116;53.518;49.398;2023-02-11T07:48:51;12.27;;;4.78;;
67185;SDS011;54116;53.518;49.398;2023-02-11T07:51:19;10.52;;;4.70;;
67185;SDS011;54116;53.518;49.398;2023-02-11T07:53:53;9.90;;;4.57;;
67185;SDS011;54116;53.518;49.398;2023-02-11T07:56:20;12.07;;;5.05;;
67185;SDS011;54116;53.518;49.398;2023-02-11T07:58:47;8.65;;;4.40;;
67185;SDS011;54116;53.518;49.398;2023-02-11T08:01:23;13.95;;;5.18;;
67185;SDS011;54116;53.518;49.398;2023-02-11T08:03:56;11.63;;;5.00;;
67185;SDS011;54116;53.518;49.398;2023-02-11T08:06:25;9.35;;;4.25;;
67185;SDS011;54116;53.518;49.398;2023-02-11T08:08:53;10.52;;;4.60;;
67185;SDS011;54116;53.518;49.398;2023-02-11T08:13:51;10.35;;;4.63;;
67185;SDS011;54116;53.518;49.398;2023-02-11T08:16:19;8.82;;;4.43;;
67185;SDS011;54116;53.518;49.398;2023-02-11T08:18:49;10.35;;;4.40;;
67185;SDS011;54116;53.518;49.398;2023-02-11T08:21:16;9.82;;;5.20;;
67185;SDS011;54116;53.518;49.398;2023-02-11T08:23:44;11.75;;;5.22;;
67185;SDS011;54116;53.518;49.398;2023-02-11T08:26:15;11.23;;;4.47;;
67185;SDS011;54116;53.518;49.398;2023-02-11T08:28:43;11.98;;;5.43;;
67185;SDS011;54116;53.518;49.398;2023-02-11T08:31:11;12.50;;;5.22;;
67185;SDS011;54116;53.518;49.398;2023-02-11T08:33:47;10.43;;;4.93;;
67185;SDS011;54116;53.518;49.398;2023-02-11T08:36:19;12.45;;;5.38;;
67185;SDS011;54116;53.518;49.398;2023-02-11T08:38:46;12.20;;;4.80;;
67185;SDS011;54116;53.518;49.398;2023-02-11T08:41:12;11.73;;;4.63;;
67185;SDS011;54116;53.518;49.398;2023-02-11T08:43:39;11.43;;;4.82;;
67185;SDS011;54116;53.518;49.398;2023-02-11T08:46:07;10.65;;;4.85;;
67185;SDS011;54116;53.518;49.398;2023-02-11T08:48:34;8.85;;;4.28;;
67185;SDS011;54116;53.518;49.398;2023-02-11T08:51:05;9.27;;;4.55;;
67185;SDS011;54116;53.518;49.398;2023-02-11T08:53:33;9.50;;;4.57;;
67185;SDS011;54116;53.518;49.398;2023-02-11T08:55:59;11.77;;;5.20;;
67185;SDS011;54116;53.518;49.398;2023-02-11T08:58:25;10.13;;;4.85;;
67185;SDS011;54116;53.518;49.398;2023-02-11T09:00:51;12.43;;;4.95;;
67185;SDS011;54116;53.518;49.398;2023-02-11T09:03:17;10.80;;;4.95;;
67185;SDS011;54116;53.518;49.398;2023-02-11T09:05:44;10.77;;;5.13;;
67185;SDS011;54116;53.518;49.398;2023-02-11T09:08:12;10.02;;;4.85;;
67185;SDS011;54116;53.518;49.398;2023-02-11T09:10:39;10.50;;;4.97;;
67185;SDS011;54116;53.518;49.398;2023-02-11T09:13:06;10.93;;;4.80;;
67185;SDS011;54116;53.518;49.398;2023-02-11T09:15:32;9.45;;;4.45;;
67185;SDS011;54116;53.518;49.398;2023-02-11T09:20:24;10.27;;;5.00;;
67185;SDS011;54116;53.518;49.398;2023-02-11T09:22:51;11.35;;;4.88;;
67185;SDS011;54116;53.518;49.398;2023-02-11T09:25:19;9.45;;;4.85;;
67185;SDS011;54116;53.518;49.398;2023-02-11T09:30:11;10.68;;;4.03;;
67185;SDS011;54116;53.518;49.398;2023-02-11T09:32:37;9.82;;;4.72;;
67185;SDS011;54116;53.518;49.398;2023-02-11T09:35:03;9.60;;;5.18;;
67185;SDS011;54116;53.518;49.398;2023-02-11T09:39:55;11.00;;;4.80;;
67185;SDS011;54116;53.518;49.398;2023-02-11T09:42:39;11.98;;;5.05;;
67185;SDS011;54116;53.518;49.398;2023-02-11T09:45:13;9.40;;;4.53;;
67185;SDS011;54116;53.518;49.398;2023-02-11T09:47:45;10.27;;;4.80;;
67185;SDS011;54116;53.518;49.398;2023-02-11T09:50:27;10.00;;;4.57;;
67185;SDS011;54116;53.518;49.398;2023-02-11T09:53:02;8.98;;;4.53;;
67185;SDS011;54116;53.518;49.398;2023-02-11T09:55:58;10.25;;;4.80;;
67185;SDS011;54116;53.518;49.398;2023-02-11T09:58:27;11.35;;;4.70;;
67185;SDS011;54116;53.518;49.398;2023-02-11T10:04:00;10.85;;;4.90;;
67185;SDS011;54116;53.518;49.398;2023-02-11T10:06:44;11.18;;;4.82;;
67185;SDS011;54116;53.518;49.398;2023-02-11T10:20:37;10.32;;;5.13;;
67185;SDS011;54116;53.518;49.398;2023-02-11T10:23:23;13.20;;;5.53;;
67185;SDS011;54116;53.518;49.398;2023-02-11T10:25:51;11.90;;;4.65;;
67185;SDS011;54116;53.518;49.398;2023-02-11T10:28:20;10.93;;;5.47;;
67185;SDS011;54116;53.518;49.398;2023-02-11T10:31:00;11.35;;;5.55;;
67185;SDS011;54116;53.518;49.398;2023-02-11T10:33:30;11.68;;;5.05;;
67185;SDS011;54116;53.518;49.398;2023-02-11T10:36:10;12.10;;;5.13;;
67185;SDS011;54116;53.518;49.398;2023-02-11T10:38:38;10.98;;;5.07;;
67185;SDS011;54116;53.518;49.398;2023-02-11T10:41:05;11.25;;;5.40;;
67185;SDS011;54116;53.518;49.398;2023-02-11T10:43:31;13.25;;;5.55;;
67185;SDS011;54116;53.518;49.398;2023-02-11T10:45:59;11.32;;;4.80;;
67185;SDS011;54116;53.518;49.398;2023-02-11T10:49:02;11.10;;;5.15;;
67185;SDS011;54116;53.518;49.398;2023-02-11T10:56:35;10.90;;;5.28;;
67185;SDS011;54116;53.518;49.398;2023-02-11T10:59:06;12.85;;;6.10;;
67185;SDS011;54116;53.518;49.398;2023-02-11T11:01:55;10.90;;;5.43;;
67185;SDS011;54116;53.518;49.398;2023-02-11T11:09:42;12.25;;;5.68;;
67185;SDS011;54116;53.518;49.398;2023-02-11T11:12:53;12.77;;;4.70;;
67185;SDS011;54116;53.518;49.398;2023-02-11T11:15:20;11.73;;;5.80;;
67185;SDS011;54116;53.518;49.398;2023-02-11T11:17:49;12.25;;;4.68;;
67185;SDS011;54116;53.518;49.398;2023-02-11T11:20:33;12.43;;;5.88;;
67185;SDS011;54116;53.518;49.398;2023-02-11T11:23:08;12.95;;;6.28;;
67185;SDS011;54116;53.518;49.398;2023-02-11T11:25:57;10.98;;;5.75;;
67185;SDS011;54116;53.518;49.398;2023-02-11T11:28:35;11.30;;;6.03;;
67185;SDS011;54116;53.518;49.398;2023-02-11T11:31:23;14.75;;;5.97;;
67185;SDS011;54116;53.518;49.398;2023-02-11T11:33:53;14.63;;;6.68;;
67185;SDS011;54116;53.518;49.398;2023-02-11T11:36:24;13.02;;;5.43;;
67185;SDS011;54116;53.518;49.398;2023-02-11T11:38:59;10.48;;;4.90;;
67185;SDS011;54116;53.518;49.398;2023-02-11T11:41:30;15.18;;;6.25;;
67185;SDS011;54116;53.518;49.398;2023-02-11T11:43:59;12.27;;;5.60;;
67185;SDS011;54116;53.518;49.398;2023-02-11T11:46:44;15.35;;;6.55;;
67185;SDS011;54116;53.518;49.398;2023-02-11T11:51:50;13.10;;;5.63;;
67185;SDS011;54116;53.518;49.398;2023-02-11T11:54:28;15.52;;;5.60;;
67185;SDS011;54116;53.518;49.398;2023-02-11T11:56:58;12.85;;;5.53;;
67185;SDS011;54116;53.518;49.398;2023-02-11T11:59:29;12.70;;;5.20;;
67185;SDS011;54116;53.518;49.398;2023-02-11T12:02:09;15.02;;;5.47;;
67185;SDS011;54116;53.518;49.398;2023-02-11T12:05:10;12.02;;;5.75;;
67185;SDS011;54116;53.518;49.398;2023-02-11T12:23:48;13.88;;;6.15;;
67185;SDS011;54116;53.518;49.398;2023-02-11T12:26:41;11.85;;;5.07;;
67185;SDS011;54116;53.518;49.398;2023-02-11T12:32:31;12.95;;;5.80;;
67185;SDS011;54116;53.518;49.398;2023-02-11T12:43:41;13.40;;;5.53;;
67185;SDS011;54116;53.518;49.398;2023-02-11T12:51:53;17.02;;;7.45;;
67185;SDS011;54116;53.518;49.398;2023-02-11T12:57:06;13.73;;;6.53;;
67185;SDS011;54116;53.518;49.398;2023-02-11T13:00:04;15.13;;;7.72;;
67185;SDS011;54116;53.518;49.398;2023-02-11T13:02:39;13.40;;;6.28;;
67185;SDS011;54116;53.518;49.398;2023-02-11T13:05:23;19.30;;;7.60;;
67185;SDS011;54116;53.518;49.398;2023-02-11T13:07:50;19.25;;;7.78;;
67185;SDS011;54116;53.518;49.398;2023-02-11T13:10:36;18.27;;;7.32;;
67185;SDS011;54116;53.518;49.398;2023-02-11T13:13:10;18.10;;;7.97;;
67185;SDS011;54116;53.518;49.398;2023-02-11T13:15:53;16.40;;;7.47;;
67185;SDS011;54116;53.518;49.398;2023-02-11T13:18:33;17.63;;;8.05;;
67185;SDS011;54116;53.518;49.398;2023-02-11T13:26:55;19.80;;;9.23;;
67185;SDS011;54116;53.518;49.398;2023-02-11T13:32:13;16.85;;;7.70;;
67185;SDS011;54116;53.518;49.398;2023-02-11T13:37:22;19.48;;;8.82;;
67185;SDS011;54116;53.518;49.398;2023-02-11T13:39:56;19.98;;;8.43;;
67185;SDS011;54116;53.518;49.398;2023-02-11T13:42:24;16.70;;;8.85;;
67185;SDS011;54116;53.518;49.398;2023-02-11T13:44:51;16.98;;;8.82;;
67185;SDS011;54116;53.518;49.398;2023-02-11T13:47:25;20.70;;;9.68;;
67185;SDS011;54116;53.518;49.398;2023-02-11T13:49:58;21.15;;;8.98;;
67185;SDS011;54116;53.518;49.398;2023-02-11T13:52:27;19.85;;;9.20;;
67185;SDS011;54116;53.518;49.398;2023-02-11T13:54:58;16.77;;;7.35;;
67185;SDS011;54116;53.518;49.398;2023-02-11T13:57:44;16.92;;;7.90;;
67185;SDS011;54116;53.518;49.398;2023-02-11T14:14:27;15.82;;;7.55;;
67185;SDS011;54116;53.518;49.398;2023-02-11T14:19:37;17.95;;;7.18;;
67185;SDS011;54116;53.518;49.398;2023-02-11T14:43:52;17.95;;;6.63;;
67185;SDS011;54116;53.518;49.398;2023-02-11T14:46:40;16.98;;;7.25;;
67185;SDS011;54116;53.518;49.398;2023-02-11T14:49:15;15.90;;;6.00;;
67185;SDS011;54116;53.518;49.398;2023-02-11T14:51:59;13.82;;;6.65;;
67185;SDS011;54116;53.518;49.398;2023-02-11T14:54:38;15.80;;;6.72;;
67185;SDS011;54116;53.518;49.398;2023-02-11T14:59:51;17.52;;;6.97;;
67185;SDS011;54116;53.518;49.398;2023-02-11T15:02:36;21.10;;;7.93;;
67185;SDS011;54116;53.518;49.398;2023-02-11T15:05:22;18.08;;;8.00;;
67185;SDS011;54116;53.518;49.398;2023-02-11T15:07:55;18.23;;;7.95;;
67185;SDS011;54116;53.518;49.398;2023-02-11T15:10:37;15.93;;;6.47;;
67185;SDS011;54116;53.518;49.398;2023-02-11T15:13:07;13.25;;;5.90;;
67185;SDS011;54116;53.518;49.398;2023-02-11T15:15:40;14.85;;;6.57;;
67185;SDS011;54116;53.518;49.398;2023-02-11T15:18:12;15.48;;;6.95;;
67185;SDS011;54116;53.518;49.398;2023-02-11T15:20:45;19.48;;;8.90;;
67185;SDS011;54116;53.518;49.398;2023-02-11T15:23:17;21.92;;;8.55;;
67185;SDS011;54116;53.518;49.398;2023-02-11T15:25:49;17.98;;;7.60;;
67185;SDS011;54116;53.518;49.398;2023-02-11T15:28:25;15.98;;;6.85;;
67185;SDS011;54116;53.518;49.398;2023-02-11T15:33:27;15.75;;;6.57;;
67185;SDS011;54116;53.518;49.398;2023-02-11T15:35:57;19.05;;;7.43;;
67185;SDS011;54116;53.518;49.398;2023-02-11T15:38:25;17.70;;;6.95;;
67185;SDS011;54116;53.518;49.398;2023-02-11T15:40:52;19.58;;;8.13;;
67185;SDS011;54116;53.518;49.398;2023-02-11T15:43:38;21.52;;;8.38;;
67185;SDS011;54116;53.518;49.398;2023-02-11T15:46:06;20.05;;;8.90;;
67185;SDS011;54116;53.518;49.398;2023-02-11T15:48:36;19.23;;;8.75;;
67185;SDS011;54116;53.518;49.398;2023-02-11T15:51:23;21.38;;;9.85;;
67185;SDS011;54116;53.518;49.398;2023-02-11T15:53:54;20.48;;;8.48;;
67185;SDS011;54116;53.518;49.398;2023-02-11T15:56:26;21.20;;;8.05;;
67185;SDS011;54116;53.518;49.398;2023-02-11T15:58:56;19.52;;;7.53;;
67185;SDS011;54116;53.518;49.398;2023-02-11T16:01:30;20.05;;;8.68;;
67185;SDS011;54116;53.518;49.398;2023-02-11T16:04:01;19.70;;;8.65;;
67185;SDS011;54116;53.518;49.398;2023-02-11T16:06:37;18.10;;;7.20;;
67185;SDS011;54116;53.518;49.398;2023-02-11T16:11:36;16.92;;;6.20;;
67185;SDS011;54116;53.518;49.398;2023-02-11T16:17:01;20.90;;;7.88;;
67185;SDS011;54116;53.518;49.398;2023-02-11T16:19:33;18.55;;;6.50;;
67185;SDS011;54116;53.518;49.398;2023-02-11T16:22:10;15.20;;;7.15;;
67185;SDS011;54116;53.518;49.398;2023-02-11T16:27:14;15.20;;;6.20;;
67185;SDS011;54116;53.518;49.398;2023-02-11T16:29:46;18.73;;;8.30;;
67185;SDS011;54116;53.518;49.398;2023-02-11T16:32:18;17.08;;;7.28;;
67185;SDS011;54116;53.518;49.398;2023-02-11T16:34:50;17.67;;;7.75;;
67185;SDS011;54116;53.518;49.398;2023-02-11T16:37:17;17.85;;;7.80;;
67185;SDS011;54116;53.518;49.398;2023-02-11T16:42:12;17.02;;;7.72;;
67185;SDS011;54116;53.518;49.398;2023-02-11T16:44:40;19.15;;;6.53;;
67185;SDS011;54116;53.518;49.398;2023-02-11T16:47:06;20.35;;;6.75;;
67185;SDS011;54116;53.518;49.398;2023-02-11T16:49:45;17.80;;;7.70;;
67185;SDS011;54116;53.518;49.398;2023-02-11T16:52:14;17.88;;;7.97;;
67185;SDS011;54116;53.518;49.398;2023-02-11T16:54:42;16.70;;;8.13;;
67185;SDS011;54116;53.518;49.398;2023-02-11T16:57:13;19.98;;;7.63;;
67185;SDS011;54116;53.518;49.398;2023-02-11T16:59:40;17.20;;;7.22;;
67185;SDS011;54116;53.518;49.398;2023-02-11T17:02:17;18.55;;;7.45;;
67185;SDS011;54116;53.518;49.398;2023-02-11T17:04:46;21.02;;;6.90;;
67185;SDS011;54116;53.518;49.398;2023-02-11T17:07:12;16.95;;;5.53;;
67185;SDS011;54116;53.518;49.398;2023-02-11T17:09:39;16.60;;;6.90;;
67185;SDS011;54116;53.518;49.398;2023-02-11T17:12:05;16.27;;;6.28;;
67185;SDS011;54116;53.518;49.398;2023-02-11T17:14:31;21.25;;;7.97;;
67185;SDS011;54116;53.518;49.398;2023-02-11T17:16:57;16.60;;;6.78;;
67185;SDS011;54116;53.518;49.398;2023-02-11T17:21:50;16.60;;;7.15;;
67185;SDS011;54116;53.518;49.398;2023-02-11T17:24:17;20.20;;;8.10;;
67185;SDS011;54116;53.518;49.398;2023-02-11T17:26:45;14.45;;;6.63;;
67185;SDS011;54116;53.518;49.398;2023-02-11T17:29:13;18.08;;;6.65;;
67185;SDS011;54116;53.518;49.398;2023-02-11T17:31:41;21.38;;;7.95;;
67185;SDS011;54116;53.518;49.398;2023-02-11T17:34:08;18.65;;;6.85;;
67185;SDS011;54116;53.518;49.398;2023-02-11T17:36:34;18.73;;;7.63;;
67185;SDS011;54116;53.518;49.398;2023-02-11T17:39:01;18.70;;;8.10;;
67185;SDS011;54116;53.518;49.398;2023-02-11T17:41:28;16.90;;;7.35;;
67185;SDS011;54116;53.518;49.398;2023-02-11T17:43:59;18.35;;;7.38;;
67185;SDS011;54116;53.518;49.398;2023-02-11T17:46:26;22.33;;;8.27;;
67185;SDS011;54116;53.518;49.398;2023-02-11T17:48:57;18.58;;;8.07;;
67185;SDS011;54116;53.518;49.398;2023-02-11T17:53:56;17.98;;;6.30;;
67185;SDS011;54116;53.518;49.398;2023-02-11T17:56:25;16.35;;;5.95;;
67185;SDS011;54116;53.518;49.398;2023-02-11T17:58:52;17.95;;;6.75;;
67185;SDS011;54116;53.518;49.398;2023-02-11T18:01:18;17.65;;;7.55;;
67185;SDS011;54116;53.518;49.398;2023-02-11T18:03:44;22.77;;;8.20;;
67185;SDS011;54116;53.518;49.398;2023-02-11T18:06:11;20.20;;;7.78;;
67185;SDS011;54116;53.518;49.398;2023-02-11T18:08:38;19.10;;;7.60;;